createdAt,value
2019-05-07T00:00:13.412Z,99.90
2019-05-07T00:02:43.643Z,99.90
2019-05-07T00:08:53.915Z,99.90
2019-05-07T00:11:23.675Z,99.90
2019-05-07T00:13:53.642Z,99.90
2019-05-07T00:16:23.661Z,99.90
2019-05-07T00:18:56.440Z,99.90
2019-05-07T00:21:26.356Z,99.90
2019-05-07T00:23:56.443Z,99.90
2019-05-07T00:26:26.197Z,99.90
2019-05-07T00:28:55.894Z,99.90
2019-05-07T00:31:25.809Z,99.90
2019-05-07T00:33:57.294Z,99.90
2019-05-07T00:36:35.428Z,99.90
2019-05-07T00:39:28.733Z,99.90
2019-05-07T00:42:09.398Z,99.90
2019-05-07T00:44:56.823Z,99.90
2019-05-07T00:47:26.738Z,99.90
2019-05-07T00:49:57.882Z,99.90
2019-05-07T00:52:27.445Z,99.90
2019-05-07T00:54:57.404Z,99.90
2019-05-07T00:57:27.159Z,99.90
2019-05-07T00:59:57.028Z,99.90
2019-05-07T01:02:27.353Z,99.90
2019-05-07T01:04:57.369Z,99.90
2019-05-07T01:07:27.119Z,99.90
2019-05-07T01:09:56.656Z,99.90
2019-05-07T01:12:26.397Z,99.90
2019-05-07T01:14:57.541Z,99.90
2019-05-07T01:17:27.338Z,99.90
2019-05-07T01:19:57.408Z,99.90
2019-05-07T01:22:27.733Z,99.90
2019-05-07T01:24:57.711Z,99.90
2019-05-07T01:27:27.933Z,99.90
2019-05-07T01:30:35.087Z,99.90
2019-05-07T01:33:15.191Z,99.90
2019-05-07T01:36:04.190Z,99.90
2019-05-07T01:38:35.893Z,99.90
2019-05-07T01:41:05.589Z,99.90
2019-05-07T01:43:35.484Z,99.90
2019-05-07T01:46:05.227Z,99.90
2019-05-07T01:52:04.764Z,99.90
2019-05-07T01:54:46.976Z,99.90
2019-05-07T01:57:18.569Z,99.90
2019-05-07T02:00:02.598Z,99.90
2019-05-07T02:02:45.890Z,99.90
2019-05-07T02:05:34.030Z,99.90
2019-05-07T02:08:06.420Z,99.90
2019-05-07T02:10:59.534Z,99.90
2019-05-07T02:13:29.830Z,99.90
2019-05-07T02:16:04.061Z,99.90
2019-05-07T02:18:38.546Z,99.90
2019-05-07T02:21:17.346Z,99.90
2019-05-07T02:23:52.169Z,99.90
2019-05-07T02:26:22.644Z,99.90
2019-05-07T02:28:52.722Z,99.90
2019-05-07T02:31:23.395Z,99.90
2019-05-07T02:33:54.130Z,99.90
2019-05-07T02:36:27.652Z,99.90
2019-05-07T02:39:12.612Z,99.90
2019-05-07T02:41:43.940Z,99.90
2019-05-07T02:44:14.058Z,99.90
2019-05-07T02:46:52.959Z,99.90
2019-05-07T02:49:43.807Z,99.90
2019-05-07T02:52:32.462Z,99.90
2019-05-07T02:55:16.886Z,99.90
2019-05-07T02:57:46.409Z,99.90
2019-05-07T03:00:19.574Z,99.90
2019-05-07T03:02:49.054Z,99.90
2019-05-07T03:05:18.776Z,99.90
2019-05-07T03:07:48.648Z,99.90
2019-05-07T03:10:18.337Z,99.90
2019-05-07T03:12:47.841Z,99.90
2019-05-07T03:15:18.022Z,99.90
2019-05-07T03:17:53.929Z,99.90
2019-05-07T03:20:27.416Z,99.90
2019-05-07T03:22:58.310Z,99.90
2019-05-07T03:25:33.849Z,99.90
2019-05-07T03:28:04.336Z,99.90
2019-05-07T03:30:58.073Z,99.90
2019-05-07T03:33:39.897Z,99.90
2019-05-07T03:36:16.883Z,99.90
2019-05-07T03:38:53.577Z,99.90
2019-05-07T03:41:27.295Z,99.90
2019-05-07T03:43:58.458Z,99.90
2019-05-07T03:46:28.310Z,99.90
2019-05-07T03:48:58.260Z,99.90
2019-05-07T03:51:28.143Z,99.90
2019-05-07T03:53:58.090Z,99.90
2019-05-07T03:56:33.007Z,99.90
2019-05-07T03:59:05.522Z,99.90
2019-05-07T04:01:35.337Z,99.90
2019-05-07T04:04:05.224Z,99.90
2019-05-07T04:06:36.086Z,99.90
2019-05-07T04:09:13.299Z,99.90
2019-05-07T04:11:43.533Z,99.90
2019-05-07T04:14:19.179Z,99.90
2019-05-07T04:16:53.478Z,99.90
2019-05-07T04:19:29.557Z,99.90
2019-05-07T04:21:59.580Z,99.90
2019-05-07T04:24:54.023Z,99.90
2019-05-07T04:27:28.693Z,99.90
2019-05-07T04:29:58.401Z,99.90
2019-05-07T04:32:34.119Z,99.90
2019-05-07T04:35:12.546Z,99.90
2019-05-07T04:37:44.696Z,99.90
2019-05-07T04:40:23.996Z,99.90
2019-05-07T04:42:54.292Z,99.90
2019-05-07T04:45:27.139Z,99.90
2019-05-07T04:48:02.808Z,99.90
2019-05-07T04:50:39.288Z,99.90
2019-05-07T04:53:04.327Z,99.90
2019-05-07T04:55:34.348Z,99.90
2019-05-07T04:58:08.677Z,99.90
2019-05-07T05:00:35.435Z,99.90
2019-05-07T05:03:30.027Z,99.90
2019-05-07T05:06:02.459Z,99.90
2019-05-07T05:08:33.103Z,99.90
2019-05-07T05:11:06.222Z,99.90
2019-05-07T05:13:36.136Z,99.90
2019-05-07T05:16:26.538Z,99.90
2019-05-07T05:18:56.824Z,99.90
2019-05-07T05:21:53.804Z,99.90
2019-05-07T05:24:33.657Z,99.90
2019-05-07T05:27:03.544Z,99.90
2019-05-07T05:29:37.121Z,99.90
2019-05-07T05:32:07.775Z,99.90
2019-05-07T05:34:39.152Z,99.90
2019-05-07T05:37:08.753Z,99.90
2019-05-07T05:39:38.624Z,99.90
2019-05-07T05:42:17.529Z,99.90
2019-05-07T05:44:48.620Z,99.90
2019-05-07T05:47:18.487Z,99.90
2019-05-07T05:49:48.362Z,99.90
2019-05-07T05:52:25.511Z,99.90
2019-05-07T05:55:22.583Z,99.90
2019-05-07T05:58:16.355Z,99.90
2019-05-07T06:01:05.231Z,99.90
2019-05-07T06:03:51.890Z,99.90
2019-05-07T06:06:42.203Z,99.90
2019-05-07T06:09:29.351Z,99.90
2019-05-07T06:12:23.258Z,99.90
2019-05-07T06:15:01.666Z,99.90
2019-05-07T06:17:52.812Z,99.90
2019-05-07T06:20:45.553Z,99.90
2019-05-07T06:23:34.257Z,99.90
2019-05-07T06:26:12.682Z,99.90
2019-05-07T06:29:07.062Z,99.90
2019-05-07T06:31:42.066Z,99.90
2019-05-07T06:34:12.474Z,99.90
2019-05-07T06:36:42.820Z,99.90
2019-05-07T06:39:25.357Z,99.90
2019-05-07T06:42:12.725Z,99.90
2019-05-07T06:44:42.802Z,99.90
2019-05-07T06:47:18.141Z,99.90
2019-05-07T06:49:48.287Z,99.90
2019-05-07T06:52:22.414Z,99.90
2019-05-07T06:54:55.259Z,99.90
2019-05-07T06:57:29.167Z,99.90
2019-05-07T07:00:03.383Z,99.90
2019-05-07T07:02:57.938Z,99.90
2019-05-07T07:05:46.596Z,99.90
2019-05-07T07:08:24.574Z,99.90
2019-05-07T07:11:06.120Z,99.90
2019-05-07T07:13:35.716Z,99.90
2019-05-07T07:16:05.365Z,99.90
2019-05-07T07:18:48.622Z,99.90
2019-05-07T07:21:06.739Z,99.90
2019-05-07T07:23:43.060Z,99.90
2019-05-07T07:26:19.128Z,99.90
2019-05-07T07:28:48.837Z,99.90
2019-05-07T07:31:27.626Z,99.90
2019-05-07T07:33:58.324Z,99.90
2019-05-07T07:36:32.070Z,99.90
2019-05-07T07:39:04.981Z,99.90
2019-05-07T07:41:43.556Z,99.90
2019-05-07T07:44:13.541Z,99.90
2019-05-07T07:46:43.059Z,98.50
2019-05-07T07:49:15.686Z,99.60
2019-05-07T07:51:55.387Z,99.90
2019-05-07T07:54:25.156Z,94.10
2019-05-07T07:57:13.195Z,90.60
2019-05-07T08:00:02.554Z,76.90
2019-05-07T08:02:43.336Z,75.70
2019-05-07T08:05:13.269Z,67.70
2019-05-07T08:07:42.871Z,59.50
2019-05-07T08:10:12.935Z,62.70
2019-05-07T08:12:43.140Z,58.50
2019-05-07T08:15:20.865Z,62.20
2019-05-07T08:18:07.397Z,56.70
2019-05-07T08:20:37.124Z,56.80
2019-05-07T08:23:06.529Z,55.70
2019-05-07T08:25:48.343Z,59.80
2019-05-07T08:28:18.832Z,54.30
2019-05-07T08:31:18.853Z,51.90
2019-05-07T08:34:02.008Z,51.50
2019-05-07T08:36:33.113Z,45.90
2019-05-07T08:39:02.685Z,51.10
2019-05-07T08:41:32.131Z,52.70
2019-05-07T08:44:15.267Z,52.90
2019-05-07T08:47:02.151Z,52.90
2019-05-07T08:49:36.884Z,51.40
2019-05-07T08:52:03.736Z,53.00
2019-05-07T08:54:33.568Z,55.90
2019-05-07T08:57:03.063Z,54.50
2019-05-07T08:59:33.624Z,54.20
2019-05-07T09:02:03.904Z,53.40
2019-05-07T09:04:33.219Z,53.20
2019-05-07T09:07:12.825Z,55.60
2019-05-07T09:09:42.737Z,56.90
2019-05-07T09:12:12.950Z,58.00
2019-05-07T09:14:42.813Z,57.60
2019-05-07T09:17:15.256Z,56.80
2019-05-07T09:19:51.480Z,51.70
2019-05-07T09:22:15.623Z,52.80
2019-05-07T09:27:38.899Z,51.80
2019-05-07T09:30:28.632Z,51.00
2019-05-07T09:33:02.604Z,54.10
2019-05-07T09:35:39.530Z,54.90
2019-05-07T09:38:07.740Z,52.40
2019-05-07T09:40:37.124Z,49.70
2019-05-07T09:43:06.611Z,48.60
2019-05-07T09:45:36.159Z,50.00
2019-05-07T09:48:08.474Z,48.90
2019-05-07T09:50:37.748Z,50.60
2019-05-07T09:53:06.930Z,52.70
2019-05-07T09:55:36.423Z,49.60
2019-05-07T09:58:05.827Z,50.30
2019-05-07T10:00:35.283Z,49.60
2019-05-07T10:03:12.638Z,47.30
2019-05-07T10:05:42.896Z,48.50
2019-05-07T10:08:13.004Z,50.00
2019-05-07T10:10:43.388Z,47.30
2019-05-07T10:13:33.029Z,45.00
2019-05-07T10:16:04.285Z,49.30
2019-05-07T10:18:33.766Z,47.60
2019-05-07T10:21:03.221Z,48.40
2019-05-07T10:23:32.680Z,52.10
2019-05-07T10:26:02.123Z,49.40
2019-05-07T10:28:32.039Z,52.60
2019-05-07T10:31:01.669Z,53.30
2019-05-07T10:33:31.992Z,48.90
2019-05-07T10:36:03.117Z,49.20
2019-05-07T10:38:32.743Z,51.70
2019-05-07T10:41:02.841Z,50.80
2019-05-07T10:43:32.724Z,51.50
2019-05-07T10:46:39.114Z,50.60
2019-05-07T10:49:22.578Z,47.60
2019-05-07T10:51:52.069Z,48.80
2019-05-07T10:54:21.879Z,52.00
2019-05-07T10:56:52.429Z,50.60
2019-05-07T10:59:22.531Z,47.00
2019-05-07T11:01:58.491Z,49.10
2019-05-07T11:04:39.354Z,45.80
2019-05-07T11:06:59.234Z,46.20
2019-05-07T11:09:28.672Z,47.00
2019-05-07T11:11:58.250Z,48.40
2019-05-07T11:14:27.609Z,47.00
2019-05-07T11:17:27.877Z,48.40
2019-05-07T11:19:57.274Z,46.10
2019-05-07T11:22:26.599Z,49.60
2019-05-07T11:24:55.957Z,44.90
2019-05-07T11:27:25.371Z,49.50
2019-05-07T11:29:55.910Z,49.40
2019-05-07T11:32:25.328Z,52.30
2019-05-07T11:34:56.390Z,51.40
2019-05-07T11:37:26.057Z,48.20
2019-05-07T11:39:55.465Z,49.40
2019-05-07T11:42:45.157Z,47.30
2019-05-07T11:45:19.844Z,48.30
2019-05-07T11:47:49.263Z,48.10
2019-05-07T11:50:35.930Z,47.50
2019-05-07T11:53:07.286Z,48.80
2019-05-07T11:55:36.707Z,49.40
2019-05-07T11:58:05.921Z,44.60
2019-05-07T12:00:48.903Z,46.00
2019-05-07T12:03:18.296Z,46.90
2019-05-07T12:05:47.544Z,49.60
2019-05-07T12:08:23.711Z,45.60
2019-05-07T12:10:52.225Z,45.80
2019-05-07T12:13:21.899Z,46.50
2019-05-07T12:15:52.225Z,47.00
2019-05-07T12:18:22.672Z,47.70
2019-05-07T12:20:54.103Z,49.10
2019-05-07T12:23:23.171Z,51.00
2019-05-07T12:25:52.853Z,45.80
2019-05-07T12:28:22.659Z,46.30
2019-05-07T12:31:09.204Z,46.40
2019-05-07T12:34:06.266Z,46.00
2019-05-07T12:36:35.417Z,47.30
2019-05-07T12:39:07.326Z,50.60
2019-05-07T12:41:36.597Z,46.60
2019-05-07T12:44:06.980Z,45.30
2019-05-07T12:46:36.495Z,45.50
2019-05-07T12:49:05.976Z,43.60
2019-05-07T12:51:42.692Z,44.90
2019-05-07T12:54:22.737Z,44.50
2019-05-07T12:56:52.104Z,46.00
2019-05-07T12:59:21.906Z,46.40
2019-05-07T13:02:15.995Z,44.20
2019-05-07T13:04:33.845Z,42.70
2019-05-07T13:07:16.992Z,44.40
2019-05-07T13:09:46.246Z,43.80
2019-05-07T13:12:15.446Z,45.10
2019-05-07T13:14:44.828Z,46.00
2019-05-07T13:17:14.121Z,46.60
2019-05-07T13:19:43.416Z,45.10
2019-05-07T13:22:13.146Z,48.40
2019-05-07T13:24:42.602Z,45.80
2019-05-07T13:27:11.940Z,45.10
2019-05-07T13:29:44.569Z,48.20
2019-05-07T13:32:12.291Z,46.10
2019-05-07T13:34:42.594Z,46.70
2019-05-07T13:37:16.685Z,46.00
2019-05-07T13:39:56.483Z,49.00
2019-05-07T13:42:43.870Z,45.20
2019-05-07T13:45:37.281Z,46.40
2019-05-07T13:48:12.892Z,47.00
2019-05-07T13:50:42.111Z,47.60
2019-05-07T13:53:12.358Z,46.50
2019-05-07T13:55:42.332Z,42.30
2019-05-07T13:58:14.009Z,45.10
2019-05-07T14:00:50.449Z,46.90
2019-05-07T14:03:19.797Z,46.00
2019-05-07T14:05:49.291Z,46.50
2019-05-07T14:08:19.473Z,47.10
2019-05-07T14:10:48.736Z,46.80
2019-05-07T14:13:18.002Z,48.80
2019-05-07T14:16:06.363Z,46.50
2019-05-07T14:18:36.619Z,46.50
2019-05-07T14:21:05.941Z,47.20
2019-05-07T14:23:35.179Z,45.50
2019-05-07T14:26:04.420Z,40.60
2019-05-07T14:28:33.721Z,43.50
2019-05-07T14:31:02.911Z,40.60
2019-05-07T14:33:47.421Z,42.00
2019-05-07T14:36:23.679Z,41.40
2019-05-07T14:38:52.932Z,40.80
2019-05-07T14:41:25.372Z,40.10
2019-05-07T14:43:58.892Z,38.10
2019-05-07T14:46:43.614Z,40.70
2019-05-07T14:48:59.188Z,38.40
2019-05-07T14:51:28.486Z,38.00
2019-05-07T14:53:57.700Z,38.90
2019-05-07T14:56:26.883Z,39.90
2019-05-07T14:58:56.036Z,35.20
2019-05-07T15:01:25.436Z,35.90
2019-05-07T15:03:54.682Z,38.20
2019-05-07T15:06:23.898Z,36.90
2019-05-07T15:08:53.154Z,35.10
2019-05-07T15:11:22.310Z,35.40
2019-05-07T15:13:52.211Z,35.40
2019-05-07T15:16:22.501Z,34.80
2019-05-07T15:18:53.485Z,35.80
2019-05-07T15:21:22.868Z,36.00
2019-05-07T15:23:52.998Z,32.10
2019-05-07T15:26:22.452Z,34.10
2019-05-07T15:28:57.373Z,34.30
2019-05-07T15:31:44.133Z,31.40
2019-05-07T15:34:13.441Z,31.90
2019-05-07T15:36:42.629Z,36.10
2019-05-07T15:39:13.403Z,32.10
2019-05-07T15:41:42.785Z,34.20
2019-05-07T15:44:12.377Z,34.50
2019-05-07T15:46:42.772Z,35.60
2019-05-07T15:49:12.604Z,38.60
2019-05-07T15:51:42.068Z,38.60
2019-05-07T15:54:12.837Z,38.80
2019-05-07T15:56:42.275Z,39.80
2019-05-07T15:59:22.483Z,42.10
2019-05-07T16:01:54.971Z,42.90
2019-05-07T16:04:26.065Z,43.10
2019-05-07T16:06:58.013Z,42.30
2019-05-07T16:09:29.061Z,43.60
2019-05-07T16:11:58.773Z,43.80
2019-05-07T16:14:28.109Z,44.50
2019-05-07T16:17:04.732Z,42.40
2019-05-07T16:19:34.020Z,44.40
2019-05-07T16:22:07.737Z,45.40
2019-05-07T16:24:37.058Z,42.50
2019-05-07T16:27:06.461Z,43.70
2019-05-07T16:29:36.006Z,46.00
2019-05-07T16:32:05.355Z,44.90
2019-05-07T16:34:34.637Z,43.20
2019-05-07T16:37:07.164Z,42.90
2019-05-07T16:39:34.722Z,43.20
2019-05-07T16:42:04.106Z,44.90
2019-05-07T16:44:33.536Z,43.60
2019-05-07T16:47:02.953Z,43.80
2019-05-07T16:49:32.310Z,44.60
2019-05-07T16:52:01.948Z,44.50
2019-05-07T16:54:31.447Z,44.50
2019-05-07T16:57:18.170Z,45.80
2019-05-07T16:59:47.441Z,45.70
2019-05-07T17:02:21.594Z,45.90
2019-05-07T17:05:07.056Z,45.90
2019-05-07T17:07:39.013Z,45.90
2019-05-07T17:10:08.270Z,48.20
2019-05-07T17:12:39.208Z,47.00
2019-05-07T17:15:08.592Z,46.80
2019-05-07T17:17:37.926Z,47.50
2019-05-07T17:20:08.031Z,48.30
2019-05-07T17:22:37.419Z,48.70
2019-05-07T17:25:24.351Z,48.60
2019-05-07T17:27:53.647Z,48.40
2019-05-07T17:30:22.967Z,49.60
2019-05-07T17:32:52.640Z,50.60
2019-05-07T17:35:22.492Z,50.40
2019-05-07T17:38:05.404Z,51.60
2019-05-07T17:40:23.324Z,51.50
2019-05-07T17:42:52.631Z,53.00
2019-05-07T17:45:22.730Z,52.90
2019-05-07T17:47:52.457Z,53.10
2019-05-07T17:50:25.553Z,53.50
2019-05-07T17:52:54.915Z,54.50
2019-05-07T17:55:24.254Z,53.70
2019-05-07T17:57:53.767Z,55.10
2019-05-07T18:00:23.212Z,55.60
2019-05-07T18:03:22.289Z,55.50
2019-05-07T18:05:51.922Z,57.60
2019-05-07T18:08:21.759Z,57.30
2019-05-07T18:10:51.038Z,57.10
2019-05-07T18:13:22.320Z,58.00
2019-05-07T18:15:52.055Z,59.80
2019-05-07T18:18:22.190Z,60.50
2019-05-07T18:20:52.028Z,61.00
2019-05-07T18:23:22.293Z,62.10
2019-05-07T18:25:53.344Z,61.70
2019-05-07T18:28:23.182Z,60.90
2019-05-07T18:30:52.659Z,62.00
2019-05-07T18:33:47.033Z,60.80
2019-05-07T18:36:24.052Z,59.70
2019-05-07T18:38:53.758Z,59.80
2019-05-07T18:41:23.551Z,60.10
2019-05-07T18:43:54.714Z,63.90
2019-05-07T18:46:24.355Z,64.10
2019-05-07T18:48:53.836Z,66.00
2019-05-07T18:51:23.093Z,65.30
2019-05-07T18:53:52.635Z,66.00
2019-05-07T18:56:52.718Z,67.00
2019-05-07T18:59:23.494Z,67.10
2019-05-07T19:01:53.107Z,69.30
2019-05-07T19:04:22.567Z,68.60
2019-05-07T19:06:51.890Z,69.90
2019-05-07T19:09:22.450Z,69.60
2019-05-07T19:11:52.415Z,69.50
2019-05-07T19:14:22.653Z,72.00
2019-05-07T19:16:52.692Z,74.30
2019-05-07T19:19:22.322Z,74.70
2019-05-07T19:21:53.019Z,77.90
2019-05-07T19:24:26.020Z,79.40
2019-05-07T19:26:53.243Z,79.40
2019-05-07T19:29:23.620Z,80.90
2019-05-07T19:31:52.841Z,84.90
2019-05-07T19:34:22.082Z,87.30
2019-05-07T19:36:52.004Z,87.80
2019-05-07T19:39:23.360Z,89.60
2019-05-07T19:41:52.522Z,90.60
2019-05-07T19:44:21.714Z,92.40
2019-05-07T19:46:52.485Z,93.00
2019-05-07T19:49:21.889Z,93.90
2019-05-07T19:51:52.378Z,93.50
2019-05-07T19:54:22.792Z,95.20
2019-05-07T19:56:52.299Z,95.30
2019-05-07T19:59:22.230Z,97.20
2019-05-07T20:01:55.998Z,98.50
2019-05-07T20:04:25.437Z,99.90
2019-05-07T20:06:54.681Z,99.90
2019-05-07T20:09:28.553Z,99.90
2019-05-07T20:11:58.017Z,99.90
2019-05-07T20:14:27.429Z,99.90
2019-05-07T20:16:56.831Z,99.90
2019-05-07T20:19:26.269Z,99.90
2019-05-07T20:21:55.603Z,99.90
2019-05-07T20:24:25.142Z,99.90
2019-05-07T20:26:54.707Z,99.90
2019-05-07T20:29:24.070Z,99.90
2019-05-07T20:31:53.416Z,99.90
2019-05-07T20:34:22.741Z,99.90
2019-05-07T20:36:52.111Z,99.90
2019-05-07T20:39:23.313Z,99.90
2019-05-07T20:41:52.943Z,99.90
2019-05-07T20:44:25.450Z,99.90
2019-05-07T20:46:55.221Z,99.90
2019-05-07T20:49:24.597Z,99.90
2019-05-07T20:51:53.917Z,99.90
2019-05-07T20:57:37.127Z,99.90
2019-05-07T21:00:07.030Z,99.90
2019-05-07T21:02:47.215Z,99.90
2019-05-07T21:05:07.599Z,99.90
2019-05-07T21:07:37.265Z,99.90
2019-05-07T21:10:06.808Z,99.90
2019-05-07T21:12:36.289Z,99.90
2019-05-07T21:15:05.993Z,99.90
2019-05-07T21:17:35.560Z,99.90
2019-05-07T21:20:04.978Z,99.90
2019-05-07T21:22:34.333Z,99.90
2019-05-07T21:25:03.686Z,99.90
2019-05-07T21:27:32.918Z,99.90
2019-05-07T21:30:02.553Z,99.90
2019-05-07T21:32:32.556Z,99.90
2019-05-07T21:35:01.789Z,99.90
2019-05-07T21:37:32.396Z,99.90
2019-05-07T21:40:02.437Z,99.90
2019-05-07T21:42:32.167Z,99.90
2019-05-07T21:45:02.101Z,99.90
2019-05-07T21:47:32.692Z,99.90
2019-05-07T21:50:02.969Z,99.90
2019-05-07T21:52:34.777Z,99.90
2019-05-07T21:55:22.432Z,99.90
2019-05-07T21:58:09.064Z,99.90
2019-05-07T22:00:56.691Z,99.90
2019-05-07T22:03:25.848Z,99.90
2019-05-07T22:05:55.120Z,99.90
2019-05-07T22:08:24.357Z,99.90
2019-05-07T22:10:53.517Z,99.90
2019-05-07T22:13:22.729Z,99.90
2019-05-07T22:15:52.188Z,99.90
2019-05-07T22:18:22.873Z,99.90
2019-05-07T22:20:52.293Z,99.90
2019-05-07T22:23:22.572Z,99.90
2019-05-07T22:25:52.427Z,99.90
2019-05-07T22:28:22.429Z,99.90
2019-05-07T22:31:02.324Z,99.90
2019-05-07T22:33:44.074Z,99.90
2019-05-07T22:36:13.372Z,99.90
2019-05-07T22:38:42.565Z,99.90
2019-05-07T22:41:12.846Z,99.90
2019-05-07T22:43:42.540Z,99.90
2019-05-07T22:46:12.458Z,99.90
2019-05-07T22:48:42.022Z,99.90
2019-05-07T22:51:12.214Z,99.90
2019-05-07T22:53:41.545Z,99.90
2019-05-07T22:56:12.032Z,99.90
2019-05-07T22:58:45.580Z,99.90
2019-05-07T23:01:14.880Z,99.90
2019-05-07T23:03:44.380Z,99.90
2019-05-07T23:06:13.811Z,99.90
2019-05-07T23:08:42.996Z,99.90
2019-05-07T23:11:12.456Z,99.90
2019-05-07T23:13:42.692Z,99.90
2019-05-07T23:16:12.646Z,99.90
2019-05-07T23:18:42.920Z,99.90
2019-05-07T23:21:12.353Z,99.90
2019-05-07T23:23:42.328Z,99.90
2019-05-07T23:26:12.195Z,99.90
2019-05-07T23:28:42.625Z,99.90
2019-05-07T23:31:12.204Z,99.90
2019-05-07T23:33:41.619Z,99.90
2019-05-07T23:36:12.774Z,99.90
2019-05-07T23:38:42.730Z,99.90
2019-05-07T23:41:30.350Z,99.90
2019-05-07T23:44:24.589Z,99.90
2019-05-07T23:46:53.936Z,99.90
2019-05-07T23:49:23.381Z,99.90
2019-05-07T23:51:53.207Z,99.90
2019-05-07T23:54:23.197Z,99.90
2019-05-07T23:57:05.053Z,99.90
2019-05-07T23:59:23.568Z,99.90
